Terminal Aerodrome Forecast
Issued by NWS Melbourne, FL

Current Version | Previous Version | Text Only | Print | Product List | Glossary On
Versions: 1 2 3 4 5 6 7 8 9 10 11 12 13 14
000
FTUS42 KMLB 160500
TAFVRB
TAF
KVRB 160531Z 1606/1706 30008KT P6SM BKN050 BKN250
     FM160800 34012G20KT P6SM BKN015
     FM161400 02012G25KT P6SM BKN040
     FM162300 05012KT P6SM -SHRA BKN020 BKN040=

USA.gov is the U.S. government's official web portal to all federal, state and local government web resources and services.